sensor_id;sensor_type;location;lat;lon;timestamp;temperature;humidity
5940;DHT22;2995;-31.998;115.906;2022-11-23T00:00:05;25.80;99.90
5940;DHT22;2995;-31.998;115.906;2022-11-23T00:02:36;25.70;99.90
5940;DHT22;2995;-31.998;115.906;2022-11-23T00:05:08;25.90;99.90
5940;DHT22;2995;-31.998;115.906;2022-11-23T00:07:39;26.20;99.90
5940;DHT22;2995;-31.998;115.906;2022-11-23T00:10:13;26.40;99.90
5940;DHT22;2995;-31.998;115.906;2022-11-23T00:12:44;26.20;99.90
5940;DHT22;2995;-31.998;115.906;2022-11-23T00:15:15;26.50;99.90
5940;DHT22;2995;-31.998;115.906;2022-11-23T00:17:48;27.10;99.90
5940;DHT22;2995;-31.998;115.906;2022-11-23T00:20:19;27.80;99.90
5940;DHT22;2995;-31.998;115.906;2022-11-23T00:22:50;28.20;99.90
5940;DHT22;2995;-31.998;115.906;2022-11-23T00:25:24;29.10;99.90
5940;DHT22;2995;-31.998;115.906;2022-11-23T00:27:55;29.50;99.90
5940;DHT22;2995;-31.998;115.906;2022-11-23T00:30:26;29.70;99.90
5940;DHT22;2995;-31.998;115.906;2022-11-23T00:32:58;29.70;99.90
5940;DHT22;2995;-31.998;115.906;2022-11-23T00:35:29;29.10;99.90
5940;DHT22;2995;-31.998;115.906;2022-11-23T00:38:00;29.40;99.90
5940;DHT22;2995;-31.998;115.906;2022-11-23T00:40:34;29.80;99.90
5940;DHT22;2995;-31.998;115.906;2022-11-23T00:43:05;30.10;99.90
5940;DHT22;2995;-31.998;115.906;2022-11-23T00:45:37;30.30;99.90
5940;DHT22;2995;-31.998;115.906;2022-11-23T00:48:08;30.80;99.90
5940;DHT22;2995;-31.998;115.906;2022-11-23T00:50:40;30.70;99.90
5940;DHT22;2995;-31.998;115.906;2022-11-23T00:53:11;30.90;99.90
5940;DHT22;2995;-31.998;115.906;2022-11-23T00:55:51;31.10;99.90
5940;DHT22;2995;-31.998;115.906;2022-11-23T00:58:22;31.30;99.90
5940;DHT22;2995;-31.998;115.906;2022-11-23T01:01:04;31.30;99.90
5940;DHT22;2995;-31.998;115.906;2022-11-23T01:03:36;31.50;99.90
5940;DHT22;2995;-31.998;115.906;2022-11-23T01:06:10;31.50;99.90
5940;DHT22;2995;-31.998;115.906;2022-11-23T01:08:41;31.50;99.90
5940;DHT22;2995;-31.998;115.906;2022-11-23T01:11:15;31.90;99.90
5940;DHT22;2995;-31.998;115.906;2022-11-23T01:13:46;31.80;99.90
5940;DHT22;2995;-31.998;115.906;2022-11-23T01:16:19;31.90;99.90
5940;DHT22;2995;-31.998;115.906;2022-11-23T01:18:52;32.30;99.90
5940;DHT22;2995;-31.998;115.906;2022-11-23T01:21:24;31.90;99.90
5940;DHT22;2995;-31.998;115.906;2022-11-23T01:23:56;31.90;99.90
5940;DHT22;2995;-31.998;115.906;2022-11-23T01:26:31;31.60;99.90
5940;DHT22;2995;-31.998;115.906;2022-11-23T01:29:03;31.60;99.90
5940;DHT22;2995;-31.998;115.906;2022-11-23T01:31:34;31.80;99.90
5940;DHT22;2995;-31.998;115.906;2022-11-23T01:34:06;31.80;99.90
5940;DHT22;2995;-31.998;115.906;2022-11-23T01:36:38;31.50;99.90
5940;DHT22;2995;-31.998;115.906;2022-11-23T01:39:10;31.40;99.90
5940;DHT22;2995;-31.998;115.906;2022-11-23T01:41:44;31.10;99.90
5940;DHT22;2995;-31.998;115.906;2022-11-23T01:44:26;31.10;99.90
5940;DHT22;2995;-31.998;115.906;2022-11-23T01:46:59;31.10;99.90
5940;DHT22;2995;-31.998;115.906;2022-11-23T01:49:34;30.90;99.90
5940;DHT22;2995;-31.998;115.906;2022-11-23T01:52:09;30.80;99.90
5940;DHT22;2995;-31.998;115.906;2022-11-23T01:54:45;30.60;99.90
5940;DHT22;2995;-31.998;115.906;2022-11-23T01:57:23;30.50;99.90
5940;DHT22;2995;-31.998;115.906;2022-11-23T01:59:56;30.40;99.90
5940;DHT22;2995;-31.998;115.906;2022-11-23T02:02:29;30.30;99.90
5940;DHT22;2995;-31.998;115.906;2022-11-23T02:05:01;30.30;99.90
5940;DHT22;2995;-31.998;115.906;2022-11-23T02:07:33;30.10;99.90
5940;DHT22;2995;-31.998;115.906;2022-11-23T02:10:06;29.90;99.90
5940;DHT22;2995;-31.998;115.906;2022-11-23T02:12:40;29.70;99.90
5940;DHT22;2995;-31.998;115.906;2022-11-23T02:15:11;29.70;99.90
5940;DHT22;2995;-31.998;115.906;2022-11-23T02:17:43;29.40;99.90
5940;DHT22;2995;-31.998;115.906;2022-11-23T02:20:15;29.20;99.90
5940;DHT22;2995;-31.998;115.906;2022-11-23T02:22:55;29.10;99.90
5940;DHT22;2995;-31.998;115.906;2022-11-23T02:25:36;29.00;99.90
5940;DHT22;2995;-31.998;115.906;2022-11-23T02:28:13;28.70;99.90
5940;DHT22;2995;-31.998;115.906;2022-11-23T02:30:46;28.40;99.90
5940;DHT22;2995;-31.998;115.906;2022-11-23T02:33:19;28.10;99.90
5940;DHT22;2995;-31.998;115.906;2022-11-23T02:35:51;27.90;99.90
5940;DHT22;2995;-31.998;115.906;2022-11-23T02:38:23;27.90;99.90
5940;DHT22;2995;-31.998;115.906;2022-11-23T02:40:57;27.70;99.90
5940;DHT22;2995;-31.998;115.906;2022-11-23T02:43:30;27.40;99.90
5940;DHT22;2995;-31.998;115.906;2022-11-23T02:46:03;27.50;99.90
5940;DHT22;2995;-31.998;115.906;2022-11-23T02:48:35;27.80;99.90
5940;DHT22;2995;-31.998;115.906;2022-11-23T02:51:06;27.70;99.90
5940;DHT22;2995;-31.998;115.906;2022-11-23T02:53:38;27.30;99.90
5940;DHT22;2995;-31.998;115.906;2022-11-23T02:56:09;27.30;99.90
5940;DHT22;2995;-31.998;115.906;2022-11-23T02:58:43;27.30;99.90
5940;DHT22;2995;-31.998;115.906;2022-11-23T03:01:15;27.40;99.90
5940;DHT22;2995;-31.998;115.906;2022-11-23T03:03:46;27.30;99.90
5940;DHT22;2995;-31.998;115.906;2022-11-23T03:06:18;27.40;99.90
5940;DHT22;2995;-31.998;115.906;2022-11-23T03:08:49;27.50;99.90
5940;DHT22;2995;-31.998;115.906;2022-11-23T03:11:21;27.40;99.90
5940;DHT22;2995;-31.998;115.906;2022-11-23T03:13:54;27.40;99.90
5940;DHT22;2995;-31.998;115.906;2022-11-23T03:16:25;27.20;99.90
5940;DHT22;2995;-31.998;115.906;2022-11-23T03:18:56;27.20;99.90
5940;DHT22;2995;-31.998;115.906;2022-11-23T03:21:28;27.40;99.90
5940;DHT22;2995;-31.998;115.906;2022-11-23T03:23:59;27.40;99.90
5940;DHT22;2995;-31.998;115.906;2022-11-23T03:26:31;27.40;99.90
5940;DHT22;2995;-31.998;115.906;2022-11-23T03:29:05;27.40;99.90
5940;DHT22;2995;-31.998;115.906;2022-11-23T03:31:37;27.30;99.90
5940;DHT22;2995;-31.998;115.906;2022-11-23T03:34:09;27.40;99.90
5940;DHT22;2995;-31.998;115.906;2022-11-23T03:36:41;27.40;99.90
5940;DHT22;2995;-31.998;115.906;2022-11-23T03:39:12;27.50;99.90
5940;DHT22;2995;-31.998;115.906;2022-11-23T03:41:43;27.60;99.90
5940;DHT22;2995;-31.998;115.906;2022-11-23T03:44:17;27.50;99.90
5940;DHT22;2995;-31.998;115.906;2022-11-23T03:46:48;27.50;99.90
5940;DHT22;2995;-31.998;115.906;2022-11-23T03:49:19;27.60;99.90
5940;DHT22;2995;-31.998;115.906;2022-11-23T03:51:50;27.50;99.90
5940;DHT22;2995;-31.998;115.906;2022-11-23T03:54:22;27.30;99.90
5940;DHT22;2995;-31.998;115.906;2022-11-23T03:56:53;27.20;99.90
5940;DHT22;2995;-31.998;115.906;2022-11-23T03:59:27;27.30;99.90
5940;DHT22;2995;-31.998;115.906;2022-11-23T04:02:03;27.40;99.90
5940;DHT22;2995;-31.998;115.906;2022-11-23T04:04:39;27.40;99.90
5940;DHT22;2995;-31.998;115.906;2022-11-23T04:07:10;27.60;99.90
5940;DHT22;2995;-31.998;115.906;2022-11-23T04:09:42;27.60;99.90
5940;DHT22;2995;-31.998;115.906;2022-11-23T04:12:14;27.60;99.90
5940;DHT22;2995;-31.998;115.906;2022-11-23T04:14:48;27.50;99.90
5940;DHT22;2995;-31.998;115.906;2022-11-23T04:17:19;27.60;99.90
5940;DHT22;2995;-31.998;115.906;2022-11-23T04:19:50;27.70;99.90
5940;DHT22;2995;-31.998;115.906;2022-11-23T04:22:21;27.60;99.90
5940;DHT22;2995;-31.998;115.906;2022-11-23T04:24:53;27.80;99.90
5940;DHT22;2995;-31.998;115.906;2022-11-23T04:27:25;27.70;99.90
5940;DHT22;2995;-31.998;115.906;2022-11-23T04:29:58;27.40;99.90
5940;DHT22;2995;-31.998;115.906;2022-11-23T04:32:29;27.50;99.90
5940;DHT22;2995;-31.998;115.906;2022-11-23T04:35:00;27.40;99.90
5940;DHT22;2995;-31.998;115.906;2022-11-23T04:37:32;27.40;99.90
5940;DHT22;2995;-31.998;115.906;2022-11-23T04:40:03;27.40;99.90
5940;DHT22;2995;-31.998;115.906;2022-11-23T04:42:35;27.60;99.90
5940;DHT22;2995;-31.998;115.906;2022-11-23T04:45:09;27.40;99.90
5940;DHT22;2995;-31.998;115.906;2022-11-23T04:47:40;27.50;99.90
5940;DHT22;2995;-31.998;115.906;2022-11-23T04:50:12;27.30;99.90
5940;DHT22;2995;-31.998;115.906;2022-11-23T04:52:43;27.40;99.90
5940;DHT22;2995;-31.998;115.906;2022-11-23T04:55:16;27.40;99.90
5940;DHT22;2995;-31.998;115.906;2022-11-23T04:57:47;27.40;99.90
5940;DHT22;2995;-31.998;115.906;2022-11-23T05:00:22;27.60;99.90
5940;DHT22;2995;-31.998;115.906;2022-11-23T05:02:53;27.60;99.90
5940;DHT22;2995;-31.998;115.906;2022-11-23T05:05:28;27.50;99.90
5940;DHT22;2995;-31.998;115.906;2022-11-23T05:08:00;27.40;99.90
5940;DHT22;2995;-31.998;115.906;2022-11-23T05:10:31;27.40;99.90
5940;DHT22;2995;-31.998;115.906;2022-11-23T05:13:02;27.50;99.90
5940;DHT22;2995;-31.998;115.906;2022-11-23T05:15:36;27.40;99.90
5940;DHT22;2995;-31.998;115.906;2022-11-23T05:18:07;27.40;99.90
5940;DHT22;2995;-31.998;115.906;2022-11-23T05:20:39;27.60;99.90
5940;DHT22;2995;-31.998;115.906;2022-11-23T05:23:15;27.50;99.90
5940;DHT22;2995;-31.998;115.906;2022-11-23T05:25:46;27.50;99.90
5940;DHT22;2995;-31.998;115.906;2022-11-23T05:28:19;27.40;99.90
5940;DHT22;2995;-31.998;115.906;2022-11-23T05:30:52;27.40;99.90
5940;DHT22;2995;-31.998;115.906;2022-11-23T05:33:28;27.30;99.90
5940;DHT22;2995;-31.998;115.906;2022-11-23T05:35:59;27.30;99.90
5940;DHT22;2995;-31.998;115.906;2022-11-23T05:38:30;27.30;99.90
5940;DHT22;2995;-31.998;115.906;2022-11-23T05:41:02;27.30;99.90
5940;DHT22;2995;-31.998;115.906;2022-11-23T05:43:33;27.40;99.90
5940;DHT22;2995;-31.998;115.906;2022-11-23T05:46:07;27.40;99.90
5940;DHT22;2995;-31.998;115.906;2022-11-23T05:48:38;27.40;99.90
5940;DHT22;2995;-31.998;115.906;2022-11-23T05:51:09;27.30;99.90
5940;DHT22;2995;-31.998;115.906;2022-11-23T05:53:41;27.30;99.90
5940;DHT22;2995;-31.998;115.906;2022-11-23T05:56:17;27.00;99.90
5940;DHT22;2995;-31.998;115.906;2022-11-23T05:58:49;26.90;99.90
5940;DHT22;2995;-31.998;115.906;2022-11-23T06:01:22;26.90;99.90
5940;DHT22;2995;-31.998;115.906;2022-11-23T06:03:53;26.90;99.90
5940;DHT22;2995;-31.998;115.906;2022-11-23T06:06:25;26.90;99.90
5940;DHT22;2995;-31.998;115.906;2022-11-23T06:08:56;26.80;99.90
5940;DHT22;2995;-31.998;115.906;2022-11-23T06:11:28;26.70;99.90
5940;DHT22;2995;-31.998;115.906;2022-11-23T06:13:59;26.80;99.90
5940;DHT22;2995;-31.998;115.906;2022-11-23T06:16:33;26.60;99.90
5940;DHT22;2995;-31.998;115.906;2022-11-23T06:19:04;26.50;99.90
5940;DHT22;2995;-31.998;115.906;2022-11-23T06:21:36;26.50;99.90
5940;DHT22;2995;-31.998;115.906;2022-11-23T06:24:07;26.50;99.90
5940;DHT22;2995;-31.998;115.906;2022-11-23T06:26:38;26.40;99.90
5940;DHT22;2995;-31.998;115.906;2022-11-23T06:29:10;26.40;99.90
5940;DHT22;2995;-31.998;115.906;2022-11-23T06:31:43;26.40;99.90
5940;DHT22;2995;-31.998;115.906;2022-11-23T06:34:15;26.40;99.90
5940;DHT22;2995;-31.998;115.906;2022-11-23T06:36:47;26.50;99.90
5940;DHT22;2995;-31.998;115.906;2022-11-23T06:39:18;26.50;99.90
5940;DHT22;2995;-31.998;115.906;2022-11-23T06:41:50;26.50;99.90
5940;DHT22;2995;-31.998;115.906;2022-11-23T06:44:21;26.30;99.90
5940;DHT22;2995;-31.998;115.906;2022-11-23T06:46:54;26.30;99.90
5940;DHT22;2995;-31.998;115.906;2022-11-23T06:49:25;26.20;99.90
5940;DHT22;2995;-31.998;115.906;2022-11-23T06:51:57;26.30;99.90
5940;DHT22;2995;-31.998;115.906;2022-11-23T06:54:28;26.40;99.90
5940;DHT22;2995;-31.998;115.906;2022-11-23T06:56:59;26.20;99.90
5940;DHT22;2995;-31.998;115.906;2022-11-23T06:59:30;26.20;99.90
5940;DHT22;2995;-31.998;115.906;2022-11-23T07:02:04;26.40;99.90
5940;DHT22;2995;-31.998;115.906;2022-11-23T07:04:35;26.40;99.90
5940;DHT22;2995;-31.998;115.906;2022-11-23T07:07:08;26.30;99.90
5940;DHT22;2995;-31.998;115.906;2022-11-23T07:09:40;26.20;99.90
5940;DHT22;2995;-31.998;115.906;2022-11-23T07:12:11;26.30;99.90
5940;DHT22;2995;-31.998;115.906;2022-11-23T07:14:43;26.50;99.90
5940;DHT22;2995;-31.998;115.906;2022-11-23T07:17:16;26.00;99.90
5940;DHT22;2995;-31.998;115.906;2022-11-23T07:19:48;26.10;99.90
5940;DHT22;2995;-31.998;115.906;2022-11-23T07:22:20;26.00;99.90
5940;DHT22;2995;-31.998;115.906;2022-11-23T07:24:51;25.90;99.90
5940;DHT22;2995;-31.998;115.906;2022-11-23T07:27:23;26.00;99.90
5940;DHT22;2995;-31.998;115.906;2022-11-23T07:29:54;25.80;99.90
5940;DHT22;2995;-31.998;115.906;2022-11-23T07:32:27;25.90;99.90
5940;DHT22;2995;-31.998;115.906;2022-11-23T07:34:59;25.90;99.90
5940;DHT22;2995;-31.998;115.906;2022-11-23T07:37:30;25.80;99.90
5940;DHT22;2995;-31.998;115.906;2022-11-23T07:40:02;25.90;99.90
5940;DHT22;2995;-31.998;115.906;2022-11-23T07:42:34;25.90;99.90
5940;DHT22;2995;-31.998;115.906;2022-11-23T07:45:06;25.90;99.90
5940;DHT22;2995;-31.998;115.906;2022-11-23T07:47:40;25.40;99.90
5940;DHT22;2995;-31.998;115.906;2022-11-23T07:50:13;25.40;99.90
5940;DHT22;2995;-31.998;115.906;2022-11-23T07:52:44;25.30;99.90
5940;DHT22;2995;-31.998;115.906;2022-11-23T07:55:15;25.40;99.90
5940;DHT22;2995;-31.998;115.906;2022-11-23T07:57:49;25.40;99.90
5940;DHT22;2995;-31.998;115.906;2022-11-23T08:00:21;25.40;99.90
5940;DHT22;2995;-31.998;115.906;2022-11-23T08:02:56;25.30;99.90
5940;DHT22;2995;-31.998;115.906;2022-11-23T08:05:27;25.50;99.90
5940;DHT22;2995;-31.998;115.906;2022-11-23T08:08:03;25.10;99.90
5940;DHT22;2995;-31.998;115.906;2022-11-23T08:10:35;25.10;99.90
5940;DHT22;2995;-31.998;115.906;2022-11-23T08:13:06;25.20;99.90
5940;DHT22;2995;-31.998;115.906;2022-11-23T08:15:38;25.10;99.90
5940;DHT22;2995;-31.998;115.906;2022-11-23T08:18:12;25.20;99.90
5940;DHT22;2995;-31.998;115.906;2022-11-23T08:20:43;25.20;99.90
5940;DHT22;2995;-31.998;115.906;2022-11-23T08:23:15;25.60;99.90
5940;DHT22;2995;-31.998;115.906;2022-11-23T08:25:46;25.30;99.90
5940;DHT22;2995;-31.998;115.906;2022-11-23T08:28:18;25.10;99.90
5940;DHT22;2995;-31.998;115.906;2022-11-23T08:30:50;25.30;99.90
5940;DHT22;2995;-31.998;115.906;2022-11-23T08:33:23;25.10;99.90
5940;DHT22;2995;-31.998;115.906;2022-11-23T08:35:55;24.90;99.90
5940;DHT22;2995;-31.998;115.906;2022-11-23T08:38:26;24.80;99.90
5940;DHT22;2995;-31.998;115.906;2022-11-23T08:40:59;24.90;99.90
5940;DHT22;2995;-31.998;115.906;2022-11-23T08:43:30;25.10;99.90
5940;DHT22;2995;-31.998;115.906;2022-11-23T08:46:02;25.10;99.90
5940;DHT22;2995;-31.998;115.906;2022-11-23T08:48:35;24.80;99.90
5940;DHT22;2995;-31.998;115.906;2022-11-23T08:51:07;24.80;99.90
5940;DHT22;2995;-31.998;115.906;2022-11-23T08:53:38;24.70;99.90
5940;DHT22;2995;-31.998;115.906;2022-11-23T08:56:10;24.80;99.90
5940;DHT22;2995;-31.998;115.906;2022-11-23T08:58:41;24.80;99.90
5940;DHT22;2995;-31.998;115.906;2022-11-23T09:01:15;25.00;99.90
5940;DHT22;2995;-31.998;115.906;2022-11-23T09:03:48;25.00;99.90
5940;DHT22;2995;-31.998;115.906;2022-11-23T09:06:21;24.90;99.90
5940;DHT22;2995;-31.998;115.906;2022-11-23T09:08:56;24.70;99.90
5940;DHT22;2995;-31.998;115.906;2022-11-23T09:11:27;24.50;99.90
5940;DHT22;2995;-31.998;115.906;2022-11-23T09:13:59;24.40;99.90
5940;DHT22;2995;-31.998;115.906;2022-11-23T09:16:30;24.40;99.90
5940;DHT22;2995;-31.998;115.906;2022-11-23T09:19:03;24.10;99.90
5940;DHT22;2995;-31.998;115.906;2022-11-23T09:21:35;24.00;99.90
5940;DHT22;2995;-31.998;115.906;2022-11-23T09:24:08;24.10;99.90
5940;DHT22;2995;-31.998;115.906;2022-11-23T09:26:39;23.70;99.90
5940;DHT22;2995;-31.998;115.906;2022-11-23T09:29:10;23.70;99.90
5940;DHT22;2995;-31.998;115.906;2022-11-23T09:31:42;23.60;99.90
5940;DHT22;2995;-31.998;115.906;2022-11-23T09:34:16;23.50;99.90
5940;DHT22;2995;-31.998;115.906;2022-11-23T09:36:47;23.50;99.90
5940;DHT22;2995;-31.998;115.906;2022-11-23T09:39:18;23.40;99.90
5940;DHT22;2995;-31.998;115.906;2022-11-23T09:44:55;23.40;99.90
5940;DHT22;2995;-31.998;115.906;2022-11-23T09:47:41;23.40;99.90
5940;DHT22;2995;-31.998;115.906;2022-11-23T09:50:25;23.40;99.90
5940;DHT22;2995;-31.998;115.906;2022-11-23T09:53:04;23.30;99.90
5940;DHT22;2995;-31.998;115.906;2022-11-23T09:55:39;23.40;99.90
5940;DHT22;2995;-31.998;115.906;2022-11-23T09:58:16;23.10;99.90
5940;DHT22;2995;-31.998;115.906;2022-11-23T10:00:52;23.20;99.90
5940;DHT22;2995;-31.998;115.906;2022-11-23T10:03:28;23.20;99.90
5940;DHT22;2995;-31.998;115.906;2022-11-23T10:06:11;23.10;99.90
5940;DHT22;2995;-31.998;115.906;2022-11-23T10:09:00;22.90;99.90
5940;DHT22;2995;-31.998;115.906;2022-11-23T10:11:55;22.80;99.90
5940;DHT22;2995;-31.998;115.906;2022-11-23T10:14:52;22.80;99.90
5940;DHT22;2995;-31.998;115.906;2022-11-23T10:20:48;22.80;99.90
5940;DHT22;2995;-31.998;115.906;2022-11-23T10:23:38;22.80;99.90
5940;DHT22;2995;-31.998;115.906;2022-11-23T10:26:15;22.70;99.90
5940;DHT22;2995;-31.998;115.906;2022-11-23T10:28:47;22.80;99.90
5940;DHT22;2995;-31.998;115.906;2022-11-23T10:31:20;22.70;99.90
5940;DHT22;2995;-31.998;115.906;2022-11-23T10:34:01;22.70;99.90
5940;DHT22;2995;-31.998;115.906;2022-11-23T10:36:36;22.60;99.90
5940;DHT22;2995;-31.998;115.906;2022-11-23T10:39:16;22.50;99.90
5940;DHT22;2995;-31.998;115.906;2022-11-23T10:41:51;22.60;99.90
5940;DHT22;2995;-31.998;115.906;2022-11-23T10:44:30;22.30;99.90
5940;DHT22;2995;-31.998;115.906;2022-11-23T10:47:03;22.30;99.90
5940;DHT22;2995;-31.998;115.906;2022-11-23T10:49:35;22.00;99.90
5940;DHT22;2995;-31.998;115.906;2022-11-23T10:52:26;22.00;99.90
5940;DHT22;2995;-31.998;115.906;2022-11-23T10:55:04;21.90;99.90
5940;DHT22;2995;-31.998;115.906;2022-11-23T10:57:42;21.90;99.90
5940;DHT22;2995;-31.998;115.906;2022-11-23T11:00:16;21.70;99.90
5940;DHT22;2995;-31.998;115.906;2022-11-23T11:02:49;21.60;99.90
5940;DHT22;2995;-31.998;115.906;2022-11-23T11:05:31;21.70;99.90
5940;DHT22;2995;-31.998;115.906;2022-11-23T11:08:12;21.80;99.90
5940;DHT22;2995;-31.998;115.906;2022-11-23T11:10:47;21.80;99.90
5940;DHT22;2995;-31.998;115.906;2022-11-23T11:13:27;21.70;99.90
5940;DHT22;2995;-31.998;115.906;2022-11-23T11:16:00;21.80;99.90
5940;DHT22;2995;-31.998;115.906;2022-11-23T11:18:33;21.80;99.90
5940;DHT22;2995;-31.998;115.906;2022-11-23T11:21:06;21.70;99.90
5940;DHT22;2995;-31.998;115.906;2022-11-23T11:23:40;21.80;99.90
5940;DHT22;2995;-31.998;115.906;2022-11-23T11:26:19;22.00;99.90
5940;DHT22;2995;-31.998;115.906;2022-11-23T11:28:52;22.00;99.90
5940;DHT22;2995;-31.998;115.906;2022-11-23T11:31:42;22.00;99.90
5940;DHT22;2995;-31.998;115.906;2022-11-23T11:34:22;21.90;99.90
5940;DHT22;2995;-31.998;115.906;2022-11-23T11:36:59;21.70;99.90
5940;DHT22;2995;-31.998;115.906;2022-11-23T11:39:45;21.70;99.90
5940;DHT22;2995;-31.998;115.906;2022-11-23T11:42:22;21.60;99.90
5940;DHT22;2995;-31.998;115.906;2022-11-23T11:44:59;21.70;99.90
5940;DHT22;2995;-31.998;115.906;2022-11-23T11:47:36;21.60;99.90
5940;DHT22;2995;-31.998;115.906;2022-11-23T11:50:18;21.60;99.90
5940;DHT22;2995;-31.998;115.906;2022-11-23T11:52:54;21.80;99.90
5940;DHT22;2995;-31.998;115.906;2022-11-23T11:55:29;21.70;99.90
5940;DHT22;2995;-31.998;115.906;2022-11-23T11:58:10;21.70;99.90
5940;DHT22;2995;-31.998;115.906;2022-11-23T12:00:43;21.50;99.90
5940;DHT22;2995;-31.998;115.906;2022-11-23T12:03:22;21.50;99.90
5940;DHT22;2995;-31.998;115.906;2022-11-23T12:06:01;21.40;99.90
5940;DHT22;2995;-31.998;115.906;2022-11-23T12:08:36;21.40;99.90
5940;DHT22;2995;-31.998;115.906;2022-11-23T12:11:12;21.40;99.90
5940;DHT22;2995;-31.998;115.906;2022-11-23T12:13:45;21.30;99.90
5940;DHT22;2995;-31.998;115.906;2022-11-23T12:16:28;21.40;99.90
5940;DHT22;2995;-31.998;115.906;2022-11-23T12:19:16;21.30;99.90
5940;DHT22;2995;-31.998;115.906;2022-11-23T12:22:22;21.30;99.90
5940;DHT22;2995;-31.998;115.906;2022-11-23T12:25:11;21.30;99.90
5940;DHT22;2995;-31.998;115.906;2022-11-23T12:27:55;21.40;99.90
5940;DHT22;2995;-31.998;115.906;2022-11-23T12:30:36;21.50;99.90
5940;DHT22;2995;-31.998;115.906;2022-11-23T12:36:18;21.50;99.90
5940;DHT22;2995;-31.998;115.906;2022-11-23T12:38:59;21.30;99.90
5940;DHT22;2995;-31.998;115.906;2022-11-23T12:41:40;21.20;99.90
5940;DHT22;2995;-31.998;115.906;2022-11-23T12:47:32;21.10;99.90
5940;DHT22;2995;-31.998;115.906;2022-11-23T12:50:16;21.20;99.90
5940;DHT22;2995;-31.998;115.906;2022-11-23T12:53:00;21.30;99.90
5940;DHT22;2995;-31.998;115.906;2022-11-23T12:55:42;21.30;99.90
5940;DHT22;2995;-31.998;115.906;2022-11-23T12:58:21;21.20;99.90
5940;DHT22;2995;-31.998;115.906;2022-11-23T13:00:55;21.10;99.90
5940;DHT22;2995;-31.998;115.906;2022-11-23T13:10:21;21.20;99.90
5940;DHT22;2995;-31.998;115.906;2022-11-23T13:13:09;21.20;99.90
5940;DHT22;2995;-31.998;115.906;2022-11-23T13:16:08;21.10;99.90
5940;DHT22;2995;-31.998;115.906;2022-11-23T13:18:57;21.10;99.90
5940;DHT22;2995;-31.998;115.906;2022-11-23T13:21:37;21.10;99.90
5940;DHT22;2995;-31.998;115.906;2022-11-23T13:24:24;21.20;99.90
5940;DHT22;2995;-31.998;115.906;2022-11-23T13:29:59;21.20;99.90
5940;DHT22;2995;-31.998;115.906;2022-11-23T13:32:54;21.20;99.90
5940;DHT22;2995;-31.998;115.906;2022-11-23T13:35:53;21.10;99.90
5940;DHT22;2995;-31.998;115.906;2022-11-23T13:38:42;21.00;99.90
5940;DHT22;2995;-31.998;115.906;2022-11-23T13:44:32;21.00;99.90
5940;DHT22;2995;-31.998;115.906;2022-11-23T13:47:17;20.90;99.90
5940;DHT22;2995;-31.998;115.906;2022-11-23T13:49:49;21.00;99.90
5940;DHT22;2995;-31.998;115.906;2022-11-23T13:52:33;20.80;99.90
5940;DHT22;2995;-31.998;115.906;2022-11-23T13:55:20;20.70;99.90
5940;DHT22;2995;-31.998;115.906;2022-11-23T14:01:00;21.00;99.90
5940;DHT22;2995;-31.998;115.906;2022-11-23T14:03:53;20.90;99.90
5940;DHT22;2995;-31.998;115.906;2022-11-23T14:06:41;20.70;99.90
5940;DHT22;2995;-31.998;115.906;2022-11-23T14:09:20;20.70;99.90
5940;DHT22;2995;-31.998;115.906;2022-11-23T14:12:00;20.60;99.90
5940;DHT22;2995;-31.998;115.906;2022-11-23T14:14:48;20.60;99.90
5940;DHT22;2995;-31.998;115.906;2022-11-23T14:17:44;20.50;99.90
5940;DHT22;2995;-31.998;115.906;2022-11-23T14:23:39;20.60;99.90
5940;DHT22;2995;-31.998;115.906;2022-11-23T14:26:25;20.60;99.90
5940;DHT22;2995;-31.998;115.906;2022-11-23T14:32:19;20.50;99.90
5940;DHT22;2995;-31.998;115.906;2022-11-23T14:35:03;20.40;99.90
5940;DHT22;2995;-31.998;115.906;2022-11-23T14:37:48;20.50;99.90
5940;DHT22;2995;-31.998;115.906;2022-11-23T14:40:26;20.50;99.90
5940;DHT22;2995;-31.998;115.906;2022-11-23T14:43:01;20.30;99.90
5940;DHT22;2995;-31.998;115.906;2022-11-23T14:45:34;20.30;99.90
5940;DHT22;2995;-31.998;115.906;2022-11-23T14:48:28;20.30;99.90
5940;DHT22;2995;-31.998;115.906;2022-11-23T14:51:01;20.30;99.90
5940;DHT22;2995;-31.998;115.906;2022-11-23T14:53:38;20.30;99.90
5940;DHT22;2995;-31.998;115.906;2022-11-23T14:56:22;20.30;99.90
5940;DHT22;2995;-31.998;115.906;2022-11-23T14:59:01;20.20;99.90
5940;DHT22;2995;-31.998;115.906;2022-11-23T15:01:33;20.10;99.90
5940;DHT22;2995;-31.998;115.906;2022-11-23T15:04:09;20.20;99.90
5940;DHT22;2995;-31.998;115.906;2022-11-23T15:06:42;20.20;99.90
5940;DHT22;2995;-31.998;115.906;2022-11-23T15:09:22;20.30;99.90
5940;DHT22;2995;-31.998;115.906;2022-11-23T15:12:07;20.30;99.90
5940;DHT22;2995;-31.998;115.906;2022-11-23T15:14:43;20.30;99.90
5940;DHT22;2995;-31.998;115.906;2022-11-23T15:17:16;20.30;99.90
5940;DHT22;2995;-31.998;115.906;2022-11-23T15:19:55;20.20;99.90
5940;DHT22;2995;-31.998;115.906;2022-11-23T15:22:27;20.20;99.90
5940;DHT22;2995;-31.998;115.906;2022-11-23T15:25:06;20.10;99.90
5940;DHT22;2995;-31.998;115.906;2022-11-23T15:27:39;20.10;99.90
5940;DHT22;2995;-31.998;115.906;2022-11-23T15:30:18;20.10;99.90
5940;DHT22;2995;-31.998;115.906;2022-11-23T15:32:57;20.10;99.90
5940;DHT22;2995;-31.998;115.906;2022-11-23T15:35:32;20.10;99.90
5940;DHT22;2995;-31.998;115.906;2022-11-23T15:38:05;20.20;99.90
5940;DHT22;2995;-31.998;115.906;2022-11-23T15:40:41;20.10;99.90
5940;DHT22;2995;-31.998;115.906;2022-11-23T15:43:17;20.10;99.90
5940;DHT22;2995;-31.998;115.906;2022-11-23T15:46:05;20.00;99.90
5940;DHT22;2995;-31.998;115.906;2022-11-23T15:48:41;20.00;99.90
5940;DHT22;2995;-31.998;115.906;2022-11-23T15:51:23;20.00;99.90
5940;DHT22;2995;-31.998;115.906;2022-11-23T15:53:57;20.00;99.90
5940;DHT22;2995;-31.998;115.906;2022-11-23T15:56:31;19.90;99.90
5940;DHT22;2995;-31.998;115.906;2022-11-23T15:59:21;19.90;99.90
5940;DHT22;2995;-31.998;115.906;2022-11-23T16:01:58;19.90;99.90
5940;DHT22;2995;-31.998;115.906;2022-11-23T16:04:31;20.00;99.90
5940;DHT22;2995;-31.998;115.906;2022-11-23T16:07:17;20.00;99.90
5940;DHT22;2995;-31.998;115.906;2022-11-23T16:09:50;19.90;99.90
5940;DHT22;2995;-31.998;115.906;2022-11-23T16:12:29;19.90;99.90
5940;DHT22;2995;-31.998;115.906;2022-11-23T16:15:30;20.00;99.90
5940;DHT22;2995;-31.998;115.906;2022-11-23T16:18:17;20.10;99.90
5940;DHT22;2995;-31.998;115.906;2022-11-23T16:20:53;20.10;99.90
5940;DHT22;2995;-31.998;115.906;2022-11-23T16:23:26;20.00;99.90
5940;DHT22;2995;-31.998;115.906;2022-11-23T16:26:00;20.00;99.90
5940;DHT22;2995;-31.998;115.906;2022-11-23T16:28:32;20.10;99.90
5940;DHT22;2995;-31.998;115.906;2022-11-23T16:31:05;19.90;99.90
5940;DHT22;2995;-31.998;115.906;2022-11-23T16:33:39;19.80;99.90
5940;DHT22;2995;-31.998;115.906;2022-11-23T16:36:10;19.70;99.90
5940;DHT22;2995;-31.998;115.906;2022-11-23T16:38:41;19.80;99.90